createdAt,value
2022-10-31T00:00:32.356Z,14.65
2022-10-31T00:02:59.079Z,14.66
2022-10-31T00:05:25.725Z,14.68
2022-10-31T00:07:55.332Z,14.69
2022-10-31T00:10:21.804Z,14.68
2022-10-31T00:12:48.297Z,14.69
2022-10-31T00:15:14.792Z,14.69
2022-10-31T00:17:41.212Z,14.69
2022-10-31T00:20:08.136Z,14.68
2022-10-31T00:22:34.538Z,14.71
2022-10-31T00:25:01.003Z,14.71
2022-10-31T00:27:27.442Z,14.70
2022-10-31T00:29:53.823Z,14.69
2022-10-31T00:32:20.237Z,14.68
2022-10-31T00:34:46.674Z,14.67
2022-10-31T00:37:13.118Z,14.67
2022-10-31T00:39:39.531Z,14.67
2022-10-31T00:42:05.966Z,14.67
2022-10-31T00:44:32.380Z,14.67
2022-10-31T00:46:58.801Z,14.64
2022-10-31T00:49:25.238Z,14.61
2022-10-31T00:51:51.681Z,14.56
2022-10-31T00:54:18.163Z,14.52
2022-10-31T00:56:44.662Z,14.49
2022-10-31T00:59:11.078Z,14.48
2022-10-31T01:01:37.646Z,14.45
2022-10-31T01:04:04.340Z,14.41
2022-10-31T01:06:30.760Z,14.40
2022-10-31T01:08:57.179Z,14.37
2022-10-31T01:11:24.522Z,14.37
2022-10-31T01:13:53.061Z,14.36
2022-10-31T01:16:21.541Z,14.36
2022-10-31T01:18:48.014Z,14.35
2022-10-31T01:21:17.489Z,14.34
2022-10-31T01:23:44.516Z,14.34
2022-10-31T01:26:14.455Z,14.34
2022-10-31T01:28:54.969Z,14.33
2022-10-31T01:31:23.222Z,14.31
2022-10-31T01:33:49.631Z,14.27
2022-10-31T01:36:33.889Z,14.22
2022-10-31T01:39:03.342Z,14.21
2022-10-31T01:41:31.822Z,14.20
2022-10-31T01:43:59.661Z,14.19
2022-10-31T01:46:34.896Z,14.17
2022-10-31T01:49:03.721Z,14.14
2022-10-31T01:51:34.112Z,14.14
2022-10-31T01:54:03.228Z,14.14
2022-10-31T01:56:29.653Z,14.12
2022-10-31T01:58:57.491Z,14.11
2022-10-31T02:01:24.115Z,14.08
2022-10-31T02:03:50.674Z,14.07
2022-10-31T02:06:27.774Z,14.03
2022-10-31T02:08:54.607Z,14.01
2022-10-31T02:11:21.067Z,14.02
2022-10-31T02:13:48.249Z,13.99
2022-10-31T02:16:14.727Z,13.98
2022-10-31T02:18:41.243Z,13.96
2022-10-31T02:21:19.838Z,13.94
2022-10-31T02:24:11.591Z,13.91
2022-10-31T02:26:52.609Z,13.91
2022-10-31T02:29:51.605Z,13.90
2022-10-31T02:32:35.653Z,13.91
2022-10-31T02:35:13.315Z,13.91
2022-10-31T02:37:50.645Z,13.89
2022-10-31T02:40:20.810Z,13.90
2022-10-31T02:43:04.655Z,13.89
2022-10-31T02:45:53.996Z,13.87
2022-10-31T02:48:23.426Z,13.86
2022-10-31T02:51:01.532Z,13.85
2022-10-31T02:53:33.098Z,13.82
2022-10-31T02:56:02.683Z,13.80
2022-10-31T02:58:33.089Z,13.77
2022-10-31T03:01:18.443Z,13.74
2022-10-31T03:04:17.225Z,13.68
2022-10-31T03:07:02.159Z,13.64
2022-10-31T03:10:01.172Z,13.61
2022-10-31T03:12:31.152Z,13.59
2022-10-31T03:15:12.697Z,13.57
2022-10-31T03:17:46.172Z,13.54
2022-10-31T03:20:12.591Z,13.52
2022-10-31T03:22:40.749Z,13.50
2022-10-31T03:25:08.449Z,13.48
2022-10-31T03:27:36.479Z,13.46
2022-10-31T03:30:04.944Z,13.43
2022-10-31T03:32:42.932Z,13.41
2022-10-31T03:35:09.775Z,13.39
2022-10-31T03:37:37.601Z,13.39
2022-10-31T03:40:05.352Z,13.37
2022-10-31T03:42:34.380Z,13.37
2022-10-31T03:45:07.546Z,13.37
2022-10-31T03:47:35.400Z,13.38
2022-10-31T03:50:01.910Z,13.36
2022-10-31T03:52:49.991Z,13.36
2022-10-31T03:55:20.371Z,13.32
2022-10-31T03:58:04.138Z,13.30
2022-10-31T04:00:32.705Z,13.29
2022-10-31T04:03:07.561Z,13.26
2022-10-31T04:05:34.553Z,13.26
2022-10-31T04:08:02.119Z,13.25
2022-10-31T04:10:32.898Z,13.21
2022-10-31T04:13:06.720Z,13.19
2022-10-31T04:15:34.053Z,13.18
2022-10-31T04:18:01.983Z,13.16
2022-10-31T04:20:34.572Z,13.16
2022-10-31T04:23:02.102Z,13.14
2022-10-31T04:25:28.612Z,13.11
2022-10-31T04:27:55.334Z,13.11
2022-10-31T04:30:21.945Z,13.10
2022-10-31T04:32:48.402Z,13.08
2022-10-31T04:35:14.863Z,13.06
2022-10-31T04:37:41.276Z,13.05
2022-10-31T04:40:08.228Z,13.02
2022-10-31T04:42:34.658Z,13.00
2022-10-31T04:45:01.061Z,12.96
2022-10-31T04:47:27.477Z,12.95
2022-10-31T04:49:53.943Z,12.93
2022-10-31T04:52:20.361Z,12.89
2022-10-31T04:54:46.749Z,12.90
2022-10-31T04:57:13.154Z,12.89
2022-10-31T04:59:39.568Z,12.87
2022-10-31T05:02:06.114Z,12.87
2022-10-31T05:04:32.634Z,12.85
2022-10-31T05:06:59.042Z,12.82
2022-10-31T05:09:25.463Z,12.80
2022-10-31T05:11:51.905Z,12.78
2022-10-31T05:14:18.329Z,12.78
2022-10-31T05:16:44.752Z,12.78
2022-10-31T05:19:11.182Z,12.82
2022-10-31T05:21:37.583Z,12.86
2022-10-31T05:24:04.353Z,12.90
2022-10-31T05:26:30.746Z,12.94
2022-10-31T05:28:57.176Z,12.99
2022-10-31T05:31:23.645Z,12.95
2022-10-31T05:33:50.073Z,12.92
2022-10-31T05:36:16.455Z,12.88
2022-10-31T05:38:42.883Z,12.85
2022-10-31T05:41:10.263Z,12.81
2022-10-31T05:43:36.734Z,12.78
2022-10-31T05:46:03.150Z,12.74
2022-10-31T05:48:29.611Z,12.73
2022-10-31T05:50:56.036Z,12.69
2022-10-31T05:53:22.433Z,12.70
2022-10-31T05:55:48.832Z,12.69
2022-10-31T05:58:15.358Z,12.69
2022-10-31T06:00:42.748Z,12.69
2022-10-31T06:05:41.398Z,12.67
2022-10-31T06:08:07.804Z,12.66
2022-10-31T06:10:34.438Z,12.68
2022-10-31T06:13:00.888Z,12.70
2022-10-31T06:15:27.339Z,12.71
2022-10-31T06:18:04.751Z,12.71
2022-10-31T06:20:31.714Z,12.74
2022-10-31T06:22:58.524Z,12.75
2022-10-31T06:25:25.183Z,12.77
2022-10-31T06:27:51.589Z,12.80
2022-10-31T06:30:18.167Z,12.83
2022-10-31T06:32:44.599Z,12.87
2022-10-31T06:35:11.187Z,12.93
2022-10-31T06:37:38.307Z,12.99
2022-10-31T06:40:05.172Z,13.03
2022-10-31T06:42:31.584Z,13.09
2022-10-31T06:44:57.992Z,13.15
2022-10-31T06:47:24.618Z,13.20
2022-10-31T06:49:54.645Z,13.27
2022-10-31T06:52:21.079Z,13.36
2022-10-31T06:54:47.578Z,13.44
2022-10-31T06:57:13.995Z,13.51
2022-10-31T06:59:40.430Z,13.57
2022-10-31T07:02:10.076Z,13.63
2022-10-31T07:04:36.606Z,13.69
2022-10-31T07:07:03.191Z,13.77
2022-10-31T07:09:29.616Z,13.83
2022-10-31T07:11:56.024Z,13.90
2022-10-31T07:14:22.465Z,13.96
2022-10-31T07:16:50.909Z,14.04
2022-10-31T07:19:17.933Z,14.10
2022-10-31T07:21:44.370Z,14.15
2022-10-31T07:24:11.790Z,14.18
2022-10-31T07:26:38.243Z,14.23
2022-10-31T07:29:04.734Z,14.30
2022-10-31T07:31:31.124Z,14.37
2022-10-31T07:33:57.567Z,14.44
2022-10-31T07:36:23.961Z,14.50
2022-10-31T07:38:50.879Z,14.51
2022-10-31T07:41:17.276Z,14.59
2022-10-31T07:43:43.723Z,14.65
2022-10-31T07:46:10.260Z,14.68
2022-10-31T07:48:36.703Z,14.75
2022-10-31T07:51:03.180Z,14.78
2022-10-31T07:53:29.607Z,14.79
2022-10-31T07:55:56.033Z,14.80
2022-10-31T07:58:22.497Z,14.81
2022-10-31T08:00:49.191Z,14.85
2022-10-31T08:03:17.811Z,14.90
2022-10-31T08:05:46.726Z,14.94
2022-10-31T08:08:14.327Z,14.96
2022-10-31T08:10:41.569Z,15.01
2022-10-31T08:13:10.557Z,15.05
2022-10-31T08:15:39.174Z,15.08
2022-10-31T08:18:06.714Z,15.09
2022-10-31T08:20:33.234Z,15.15
2022-10-31T08:23:01.704Z,15.18
2022-10-31T08:25:32.417Z,15.23
2022-10-31T08:28:02.637Z,15.27
2022-10-31T08:30:31.595Z,15.30
2022-10-31T08:33:13.902Z,15.36
2022-10-31T08:35:40.938Z,15.39
2022-10-31T08:38:08.675Z,15.44
2022-10-31T08:40:36.164Z,15.50
2022-10-31T08:43:04.824Z,15.54
2022-10-31T08:45:32.505Z,15.56
2022-10-31T08:48:04.207Z,15.59
2022-10-31T08:50:32.125Z,15.60
2022-10-31T08:53:12.641Z,15.63
2022-10-31T08:55:40.034Z,15.66
2022-10-31T08:58:10.691Z,15.69
2022-10-31T09:00:37.643Z,15.73
2022-10-31T09:03:06.504Z,15.78
2022-10-31T09:05:33.709Z,15.79
2022-10-31T09:08:02.442Z,15.76
2022-10-31T09:10:29.992Z,15.85
2022-10-31T09:13:09.039Z,15.85
2022-10-31T09:15:37.015Z,15.89
2022-10-31T09:18:04.004Z,15.95
2022-10-31T09:20:32.053Z,15.95
2022-10-31T09:22:59.950Z,15.99
2022-10-31T09:25:27.194Z,16.01
2022-10-31T09:28:00.517Z,16.01
2022-10-31T09:30:30.205Z,16.05
2022-10-31T09:33:01.758Z,16.06
2022-10-31T09:35:29.025Z,16.06
2022-10-31T09:37:56.428Z,16.08
2022-10-31T09:40:24.335Z,16.11
2022-10-31T09:43:15.684Z,16.18
2022-10-31T09:45:49.082Z,16.24
2022-10-31T09:48:33.909Z,16.27
2022-10-31T09:51:13.235Z,16.30
2022-10-31T09:53:43.701Z,16.30
2022-10-31T09:56:13.965Z,16.35
2022-10-31T09:58:46.304Z,16.36
2022-10-31T10:01:34.534Z,16.43
2022-10-31T10:04:40.346Z,16.43
2022-10-31T10:07:31.541Z,16.45
2022-10-31T10:09:59.175Z,16.45
2022-10-31T10:12:40.993Z,16.46
2022-10-31T10:15:22.101Z,16.48
2022-10-31T10:17:55.980Z,16.47
2022-10-31T10:20:35.390Z,16.49
2022-10-31T10:23:27.873Z,16.52
2022-10-31T10:26:08.750Z,16.53
2022-10-31T10:28:40.903Z,16.56
2022-10-31T10:31:18.412Z,16.57
2022-10-31T10:34:12.619Z,16.58
2022-10-31T10:36:46.152Z,16.65
2022-10-31T10:39:24.169Z,16.65
2022-10-31T10:42:10.728Z,16.68
2022-10-31T10:45:03.637Z,16.67
2022-10-31T10:47:44.199Z,16.69
2022-10-31T10:50:16.520Z,16.72
2022-10-31T10:53:00.656Z,16.79
2022-10-31T10:55:40.589Z,16.83
2022-10-31T10:58:09.083Z,16.93
2022-10-31T11:00:39.300Z,16.95
2022-10-31T11:03:06.608Z,16.98
2022-10-31T11:05:46.035Z,17.02
2022-10-31T11:08:13.050Z,17.05
2022-10-31T11:10:39.668Z,17.06
2022-10-31T11:13:06.128Z,17.10
2022-10-31T11:15:38.077Z,17.08
2022-10-31T11:18:05.331Z,17.15
2022-10-31T11:20:37.157Z,17.21
2022-10-31T11:23:24.420Z,17.24
2022-10-31T11:26:00.850Z,17.29
2022-10-31T11:28:30.300Z,17.35
2022-10-31T11:31:00.237Z,17.40
2022-10-31T11:33:46.260Z,17.47
2022-10-31T11:36:33.506Z,17.53
2022-10-31T11:39:01.082Z,17.56
2022-10-31T11:41:40.653Z,17.60
2022-10-31T11:44:17.516Z,17.60
2022-10-31T11:46:46.863Z,17.61
2022-10-31T11:49:43.037Z,17.65
2022-10-31T11:52:15.417Z,17.64
2022-10-31T11:54:55.912Z,17.67
2022-10-31T11:57:30.698Z,17.69
2022-10-31T11:59:59.691Z,17.72
2022-10-31T12:02:27.299Z,17.75
2022-10-31T12:05:02.436Z,17.78
2022-10-31T12:07:29.021Z,17.78
2022-10-31T12:09:55.553Z,17.83
2022-10-31T12:12:24.982Z,17.85
2022-10-31T12:14:57.210Z,17.83
2022-10-31T12:17:42.583Z,17.87
2022-10-31T12:20:30.296Z,17.92
2022-10-31T12:23:05.913Z,17.93
2022-10-31T12:25:42.969Z,17.96
2022-10-31T12:28:32.657Z,18.00
2022-10-31T12:31:08.194Z,18.03
2022-10-31T12:33:42.313Z,18.02
2022-10-31T12:36:17.904Z,18.03
2022-10-31T12:38:50.285Z,17.97
2022-10-31T12:41:22.744Z,18.00
2022-10-31T12:44:01.655Z,17.98
2022-10-31T12:46:54.656Z,18.02
2022-10-31T12:49:29.005Z,18.01
2022-10-31T12:52:10.495Z,17.93
2022-10-31T12:54:49.190Z,17.95
2022-10-31T12:57:18.809Z,17.94
2022-10-31T13:00:06.025Z,17.90
2022-10-31T13:02:47.293Z,17.87
2022-10-31T13:05:32.509Z,17.83
2022-10-31T13:08:04.024Z,17.77
2022-10-31T13:10:34.051Z,17.75
2022-10-31T13:13:07.971Z,17.73
2022-10-31T13:15:40.031Z,17.72
2022-10-31T13:18:12.866Z,17.69
2022-10-31T13:20:43.334Z,17.66
2022-10-31T13:26:41.998Z,17.63
2022-10-31T13:29:31.789Z,17.60
2022-10-31T13:32:00.678Z,17.56
2022-10-31T13:34:28.509Z,17.55
2022-10-31T13:37:16.418Z,17.52
2022-10-31T13:40:21.198Z,17.51
2022-10-31T13:43:08.160Z,17.44
2022-10-31T13:45:34.604Z,17.43
2022-10-31T13:48:16.416Z,17.39
2022-10-31T13:50:44.293Z,17.36
2022-10-31T13:53:20.265Z,17.29
2022-10-31T13:55:49.456Z,17.29
2022-10-31T13:58:25.293Z,17.24
2022-10-31T14:01:16.563Z,17.20
2022-10-31T14:06:37.888Z,17.14
2022-10-31T14:09:04.836Z,17.13
2022-10-31T14:11:34.592Z,17.11
2022-10-31T14:14:03.941Z,17.11
2022-10-31T14:16:31.832Z,17.08
2022-10-31T14:19:07.568Z,17.06
2022-10-31T14:21:42.935Z,17.07
2022-10-31T14:24:26.125Z,17.03
2022-10-31T14:27:03.914Z,16.97
2022-10-31T14:29:34.958Z,16.95
2022-10-31T14:32:11.745Z,16.93
2022-10-31T14:34:41.876Z,16.87
2022-10-31T14:37:39.623Z,16.83
2022-10-31T14:40:14.999Z,16.79
2022-10-31T14:42:46.448Z,16.75
2022-10-31T14:45:40.368Z,16.73
2022-10-31T14:48:31.722Z,16.70
2022-10-31T14:50:59.501Z,16.65
2022-10-31T14:53:28.601Z,16.61
2022-10-31T14:55:56.781Z,16.60
2022-10-31T14:58:43.713Z,16.57
2022-10-31T15:01:22.327Z,16.56
2022-10-31T15:04:17.610Z,16.52
2022-10-31T15:06:43.388Z,16.49
2022-10-31T15:09:27.439Z,16.49
2022-10-31T15:11:53.893Z,16.47
2022-10-31T15:14:32.817Z,16.45
2022-10-31T15:17:00.329Z,16.44
2022-10-31T15:19:28.788Z,16.44
2022-10-31T15:21:56.834Z,16.42
2022-10-31T15:24:25.896Z,16.38
2022-10-31T15:26:53.727Z,16.36
2022-10-31T15:29:24.735Z,16.33
2022-10-31T15:31:52.030Z,16.26
2022-10-31T15:34:25.870Z,16.24
2022-10-31T15:36:52.371Z,16.22
2022-10-31T15:39:19.474Z,16.24
2022-10-31T15:41:57.337Z,16.22
2022-10-31T15:44:34.104Z,16.23
2022-10-31T15:47:06.200Z,16.22
2022-10-31T15:49:39.567Z,16.23
2022-10-31T15:52:21.648Z,16.22
2022-10-31T15:54:51.407Z,16.21
2022-10-31T15:57:18.061Z,16.21
2022-10-31T15:59:47.632Z,16.22
2022-10-31T16:02:15.845Z,16.21
2022-10-31T16:04:54.185Z,16.19
2022-10-31T16:07:23.562Z,16.20
2022-10-31T16:10:00.945Z,16.19
2022-10-31T16:12:34.817Z,16.20
2022-10-31T16:15:01.606Z,16.20
2022-10-31T16:17:28.879Z,16.18
2022-10-31T16:19:58.570Z,16.18
2022-10-31T16:22:30.164Z,16.19
2022-10-31T16:25:01.107Z,16.20
2022-10-31T16:27:30.133Z,16.20
2022-10-31T16:29:58.115Z,16.21
2022-10-31T16:32:53.062Z,16.21
2022-10-31T16:35:34.817Z,16.20
2022-10-31T16:38:01.260Z,16.18
2022-10-31T16:40:27.716Z,16.19
2022-10-31T16:42:54.293Z,16.17
2022-10-31T16:45:22.990Z,16.15
2022-10-31T16:47:50.353Z,16.16
2022-10-31T16:50:20.961Z,16.14
2022-10-31T16:55:37.220Z,16.11
2022-10-31T16:58:04.094Z,16.10
2022-10-31T17:00:31.602Z,16.09
2022-10-31T17:02:58.014Z,16.09
2022-10-31T17:05:30.167Z,16.07
2022-10-31T17:07:57.844Z,16.05
2022-10-31T17:10:25.039Z,16.03
2022-10-31T17:12:52.190Z,16.04
2022-10-31T17:15:23.394Z,16.02
2022-10-31T17:17:49.859Z,16.00
2022-10-31T17:20:20.209Z,16.01
2022-10-31T17:22:46.647Z,16.00
2022-10-31T17:25:18.329Z,15.98
2022-10-31T17:27:47.346Z,15.98
2022-10-31T17:30:14.385Z,15.97
2022-10-31T17:32:41.819Z,15.95
2022-10-31T17:35:10.485Z,15.95
2022-10-31T17:37:37.085Z,15.92
2022-10-31T17:40:03.700Z,15.92
2022-10-31T17:42:30.097Z,15.93
2022-10-31T17:44:56.499Z,15.90
2022-10-31T17:47:23.216Z,15.90
2022-10-31T17:49:49.620Z,15.88
2022-10-31T17:52:16.050Z,15.87
2022-10-31T17:54:42.458Z,15.86
2022-10-31T17:57:08.896Z,15.84
2022-10-31T17:59:35.323Z,15.84
2022-10-31T18:02:02.971Z,15.82
2022-10-31T18:04:29.602Z,15.81
2022-10-31T18:06:56.057Z,15.79
2022-10-31T18:09:22.490Z,15.78
2022-10-31T18:11:48.900Z,15.74
2022-10-31T18:14:15.291Z,15.72
2022-10-31T18:16:41.710Z,15.69
2022-10-31T18:19:08.201Z,15.67
2022-10-31T18:21:34.625Z,15.66
2022-10-31T18:24:02.899Z,15.64
2022-10-31T18:26:29.315Z,15.63
2022-10-31T18:28:55.738Z,15.61
2022-10-31T18:31:22.181Z,15.61
2022-10-31T18:33:48.664Z,15.60
2022-10-31T18:36:15.099Z,15.59
2022-10-31T18:38:44.783Z,15.58
2022-10-31T18:41:12.305Z,15.59
2022-10-31T18:43:38.689Z,15.60
2022-10-31T18:46:10.382Z,15.59
2022-10-31T18:48:37.515Z,15.61
2022-10-31T18:53:36.626Z,15.60
2022-10-31T18:56:10.402Z,15.59
2022-10-31T18:58:38.186Z,15.60
2022-10-31T19:01:09.669Z,15.59
2022-10-31T19:03:36.442Z,15.58
2022-10-31T19:06:03.149Z,15.58
2022-10-31T19:08:29.972Z,15.57
2022-10-31T19:10:56.537Z,15.55
2022-10-31T19:13:22.940Z,15.56
2022-10-31T19:15:49.343Z,15.55
2022-10-31T19:18:15.756Z,15.52
2022-10-31T19:20:42.163Z,15.50
2022-10-31T19:23:08.610Z,15.51
2022-10-31T19:25:35.136Z,15.49
2022-10-31T19:28:01.922Z,15.48
2022-10-31T19:30:28.627Z,15.48
2022-10-31T19:32:55.888Z,15.47
2022-10-31T19:35:22.292Z,15.47
2022-10-31T19:37:48.716Z,15.47
2022-10-31T19:40:15.488Z,15.47
2022-10-31T19:42:41.905Z,15.47
2022-10-31T19:45:08.600Z,15.46
2022-10-31T19:47:35.000Z,15.46
2022-10-31T19:50:01.594Z,15.45
2022-10-31T19:52:28.040Z,15.44
2022-10-31T19:54:54.461Z,15.43
2022-10-31T19:57:35.811Z,15.40
2022-10-31T20:00:07.831Z,15.42
2022-10-31T20:02:34.331Z,15.42
2022-10-31T20:05:01.818Z,15.42
2022-10-31T20:07:28.230Z,15.42
2022-10-31T20:09:54.721Z,15.44
2022-10-31T20:12:21.471Z,15.42
2022-10-31T20:14:49.470Z,15.41
2022-10-31T20:17:15.926Z,15.42
2022-10-31T20:19:42.397Z,15.40
2022-10-31T20:22:08.834Z,15.38
2022-10-31T20:24:35.808Z,15.39
2022-10-31T20:27:03.222Z,15.38
2022-10-31T20:29:29.657Z,15.38
2022-10-31T20:31:57.108Z,15.37
2022-10-31T20:34:23.501Z,15.35
2022-10-31T20:36:49.931Z,15.35
2022-10-31T20:39:16.358Z,15.33
2022-10-31T20:41:42.780Z,15.32
2022-10-31T20:44:09.285Z,15.30
2022-10-31T20:46:35.689Z,15.29
2022-10-31T20:49:02.158Z,15.29
2022-10-31T20:51:28.896Z,15.28
2022-10-31T20:53:56.613Z,15.28
2022-10-31T20:56:25.039Z,15.27
2022-10-31T20:58:51.524Z,15.29
2022-10-31T21:01:20.487Z,15.29
2022-10-31T21:03:47.641Z,15.28
2022-10-31T21:06:14.920Z,15.27
2022-10-31T21:08:42.718Z,15.24
2022-10-31T21:11:16.076Z,15.25
2022-10-31T21:13:43.828Z,15.24
2022-10-31T21:16:12.979Z,15.23
2022-10-31T21:18:40.776Z,15.22
2022-10-31T21:21:12.289Z,15.23
2022-10-31T21:23:38.921Z,15.23
2022-10-31T21:26:20.963Z,15.23
2022-10-31T21:28:48.425Z,15.23
2022-10-31T21:31:17.047Z,15.22
2022-10-31T21:33:44.281Z,15.21
2022-10-31T21:36:10.887Z,15.21
2022-10-31T21:38:37.600Z,15.22
2022-10-31T21:41:12.013Z,15.21
2022-10-31T21:43:40.085Z,15.21
2022-10-31T21:46:17.404Z,15.20
2022-10-31T21:48:44.567Z,15.16
2022-10-31T21:51:12.606Z,15.16
2022-10-31T21:53:58.171Z,15.14
2022-10-31T21:56:25.038Z,15.14
2022-10-31T21:58:52.254Z,15.14
2022-10-31T22:01:19.100Z,15.13
2022-10-31T22:03:45.612Z,15.13
2022-10-31T22:06:12.754Z,15.11
2022-10-31T22:08:40.583Z,15.12
2022-10-31T22:11:09.573Z,15.10
2022-10-31T22:13:36.890Z,15.10
2022-10-31T22:16:04.865Z,15.07
2022-10-31T22:18:31.508Z,15.07
2022-10-31T22:21:06.044Z,15.08
2022-10-31T22:23:32.956Z,15.06
2022-10-31T22:26:07.178Z,15.04
2022-10-31T22:28:34.147Z,15.04
2022-10-31T22:31:07.799Z,15.01
2022-10-31T22:33:34.580Z,15.01
2022-10-31T22:36:05.608Z,15.01
2022-10-31T22:38:39.774Z,15.00
2022-10-31T22:41:17.332Z,14.98
2022-10-31T22:43:43.815Z,14.98
2022-10-31T22:46:24.396Z,14.97
2022-10-31T22:48:53.140Z,14.95
2022-10-31T22:51:30.829Z,14.95
2022-10-31T22:53:57.429Z,14.94
2022-10-31T22:56:26.184Z,14.92
2022-10-31T22:58:52.807Z,14.91
2022-10-31T23:01:21.742Z,14.90
2022-10-31T23:03:48.503Z,14.90
2022-10-31T23:06:17.126Z,14.89
2022-10-31T23:08:43.765Z,14.88
2022-10-31T23:11:32.350Z,14.87
2022-10-31T23:14:15.685Z,14.86
2022-10-31T23:16:47.018Z,14.86
2022-10-31T23:19:18.108Z,14.84
2022-10-31T23:21:57.014Z,14.83
2022-10-31T23:24:39.313Z,14.80
2022-10-31T23:27:14.354Z,14.80
2022-10-31T23:29:47.680Z,14.81
2022-10-31T23:32:22.788Z,14.80
2022-10-31T23:34:50.502Z,14.80
2022-10-31T23:37:18.149Z,14.79
2022-10-31T23:39:44.760Z,14.80
2022-10-31T23:42:11.295Z,14.79
2022-10-31T23:44:37.831Z,14.78
2022-10-31T23:47:04.962Z,14.78
2022-10-31T23:49:31.522Z,14.79
2022-10-31T23:51:58.051Z,14.78
2022-10-31T23:54:25.414Z,14.77
2022-10-31T23:56:52.313Z,14.78
2022-10-31T23:59:18.828Z,14.77
